createdAt,value
2023-10-16T00:02:26.526Z,7.90
2023-10-16T00:04:56.086Z,7.40
2023-10-16T00:07:28.864Z,7.50
2023-10-16T00:09:56.708Z,8.00
2023-10-16T00:12:24.402Z,7.10
2023-10-16T00:14:51.878Z,7.40
2023-10-16T00:17:23.242Z,8.30
2023-10-16T00:19:51.929Z,7.00
2023-10-16T00:22:20.056Z,6.90
2023-10-16T00:24:47.818Z,7.10
2023-10-16T00:27:16.730Z,8.00
2023-10-16T00:29:45.096Z,6.90
2023-10-16T00:32:13.145Z,8.70
2023-10-16T00:34:40.683Z,7.80
2023-10-16T00:37:08.520Z,7.60
2023-10-16T00:39:38.333Z,8.10
2023-10-16T00:42:09.933Z,7.40
2023-10-16T00:44:39.055Z,7.50
2023-10-16T00:47:11.593Z,7.70
2023-10-16T00:49:42.170Z,7.90
2023-10-16T00:52:19.665Z,7.20
2023-10-16T00:54:48.360Z,8.40
2023-10-16T00:57:15.863Z,6.70
2023-10-16T00:59:44.699Z,8.40
2023-10-16T01:02:15.139Z,9.20
2023-10-16T01:04:43.811Z,6.20
2023-10-16T01:07:16.787Z,8.00
2023-10-16T01:09:45.627Z,8.30
2023-10-16T01:12:13.065Z,8.50
2023-10-16T01:14:44.473Z,6.80
2023-10-16T01:17:12.884Z,7.90
2023-10-16T01:19:46.061Z,8.40
2023-10-16T01:22:15.763Z,9.40
2023-10-16T01:24:45.975Z,6.40
2023-10-16T01:27:28.489Z,9.20
2023-10-16T01:29:59.110Z,6.60
2023-10-16T01:32:29.171Z,7.00
2023-10-16T01:34:57.494Z,6.50
2023-10-16T01:37:29.980Z,7.20
2023-10-16T01:40:16.953Z,6.50
2023-10-16T01:42:44.678Z,8.20
2023-10-16T01:45:13.921Z,7.20
2023-10-16T01:47:41.984Z,7.00
2023-10-16T01:50:23.336Z,7.10
2023-10-16T01:52:51.930Z,7.60
2023-10-16T01:55:19.806Z,7.00
2023-10-16T01:57:49.514Z,6.50
2023-10-16T02:00:26.872Z,7.30
2023-10-16T02:02:55.081Z,7.50
2023-10-16T02:05:23.294Z,7.00
2023-10-16T02:07:52.339Z,9.20
2023-10-16T02:10:21.856Z,6.90
2023-10-16T02:12:49.788Z,6.60
2023-10-16T02:15:23.041Z,6.20
2023-10-16T02:17:51.648Z,6.20
2023-10-16T02:20:21.848Z,6.50
2023-10-16T02:22:49.040Z,6.20
2023-10-16T02:25:18.854Z,8.40
2023-10-16T02:27:47.811Z,6.80
2023-10-16T02:30:30.132Z,10.40
2023-10-16T02:33:12.872Z,6.90
2023-10-16T02:35:43.775Z,6.40
2023-10-16T02:38:15.331Z,6.90
2023-10-16T02:40:45.417Z,8.80
2023-10-16T02:43:19.905Z,8.40
2023-10-16T02:45:53.427Z,7.00
2023-10-16T02:48:22.305Z,6.80
2023-10-16T02:50:51.756Z,6.60
2023-10-16T02:53:23.043Z,6.90
2023-10-16T02:56:16.613Z,6.50
2023-10-16T02:58:56.185Z,6.10
2023-10-16T03:01:24.081Z,6.70
2023-10-16T03:03:53.957Z,7.60
2023-10-16T03:06:21.332Z,6.70
2023-10-16T03:08:51.966Z,8.30
2023-10-16T03:11:22.439Z,6.30
2023-10-16T03:13:51.888Z,7.50
2023-10-16T03:16:28.686Z,6.40
2023-10-16T03:19:10.840Z,5.20
2023-10-16T03:21:42.304Z,6.40
2023-10-16T03:24:11.133Z,6.40
2023-10-16T03:26:43.904Z,6.40
2023-10-16T03:29:11.764Z,5.50
2023-10-16T03:31:41.557Z,6.50
2023-10-16T03:34:13.454Z,7.30
2023-10-16T03:36:42.422Z,6.60
2023-10-16T03:39:13.591Z,5.70
2023-10-16T03:41:41.321Z,6.20
2023-10-16T03:44:13.440Z,7.20
2023-10-16T03:46:43.020Z,7.30
2023-10-16T03:49:10.540Z,5.70
2023-10-16T03:51:39.665Z,7.40
2023-10-16T03:54:07.399Z,7.40
2023-10-16T03:56:34.547Z,7.90
2023-10-16T03:59:01.588Z,7.50
2023-10-16T04:01:29.197Z,5.80
2023-10-16T04:03:59.267Z,5.90
2023-10-16T04:06:27.715Z,6.30
2023-10-16T04:08:57.134Z,7.70
2023-10-16T04:11:25.836Z,7.90
2023-10-16T04:13:54.396Z,6.50
2023-10-16T04:16:57.307Z,6.30
2023-10-16T04:19:27.839Z,6.70
2023-10-16T04:21:59.446Z,8.10
2023-10-16T04:24:29.597Z,7.30
2023-10-16T04:26:59.217Z,8.90
2023-10-16T04:29:35.885Z,5.90
2023-10-16T04:32:08.968Z,6.60
2023-10-16T04:34:40.599Z,8.60
2023-10-16T04:37:27.450Z,8.20
2023-10-16T04:39:58.122Z,8.70
2023-10-16T04:42:55.138Z,9.60
2023-10-16T04:45:26.365Z,5.90
2023-10-16T04:47:54.569Z,7.20
2023-10-16T04:51:00.945Z,6.30
2023-10-16T04:53:24.159Z,5.30
2023-10-16T04:55:52.361Z,6.90
2023-10-16T04:58:22.212Z,6.90
2023-10-16T05:00:58.430Z,6.20
2023-10-16T05:03:45.540Z,6.60
2023-10-16T05:06:36.630Z,6.80
2023-10-16T05:09:24.453Z,5.80
2023-10-16T05:12:26.859Z,6.30
2023-10-16T05:15:12.865Z,5.80
2023-10-16T05:18:12.813Z,5.20
2023-10-16T05:21:22.119Z,6.60
2023-10-16T05:24:10.985Z,5.70
2023-10-16T05:26:57.076Z,5.70
2023-10-16T05:29:52.404Z,5.20
2023-10-16T05:32:39.645Z,5.80
2023-10-16T05:35:25.983Z,6.00
2023-10-16T05:38:14.220Z,9.00
2023-10-16T05:41:00.067Z,8.10
2023-10-16T05:43:47.457Z,8.90
2023-10-16T05:46:36.547Z,9.40
2023-10-16T05:49:22.121Z,10.10
2023-10-16T05:52:08.046Z,10.30
2023-10-16T05:54:53.884Z,7.30
2023-10-16T05:57:39.674Z,7.90
2023-10-16T06:00:26.795Z,8.70
2023-10-16T06:03:15.394Z,7.50
2023-10-16T06:06:00.888Z,6.60
2023-10-16T06:08:46.675Z,8.00
2023-10-16T06:11:33.535Z,6.90
2023-10-16T06:14:15.881Z,8.80
2023-10-16T06:16:49.691Z,8.20
2023-10-16T06:19:17.386Z,9.20
2023-10-16T06:21:50.556Z,8.70
2023-10-16T06:24:34.899Z,8.90
2023-10-16T06:27:13.872Z,11.10
2023-10-16T06:29:51.159Z,6.50
2023-10-16T06:32:28.040Z,7.30
2023-10-16T06:35:02.555Z,7.50
2023-10-16T06:37:33.818Z,6.40
2023-10-16T06:40:06.524Z,6.60
2023-10-16T06:42:33.668Z,6.20
2023-10-16T06:45:11.456Z,8.70
2023-10-16T06:47:43.123Z,7.10
2023-10-16T06:50:49.137Z,8.90
2023-10-16T06:53:16.259Z,7.80
2023-10-16T06:55:43.366Z,7.10
2023-10-16T06:58:11.349Z,8.50
2023-10-16T07:00:40.368Z,6.80
2023-10-16T07:03:11.227Z,8.30
2023-10-16T07:05:45.382Z,6.50
2023-10-16T07:08:19.436Z,6.00
2023-10-16T07:10:57.144Z,7.30
2023-10-16T07:13:29.601Z,6.90
2023-10-16T07:16:03.723Z,8.00
2023-10-16T07:18:36.714Z,11.10
2023-10-16T07:21:11.865Z,6.20
2023-10-16T07:23:39.661Z,5.60
2023-10-16T07:26:10.944Z,6.70
2023-10-16T07:28:42.019Z,8.30
2023-10-16T07:31:12.569Z,8.70
2023-10-16T07:33:43.560Z,7.20
2023-10-16T07:36:12.869Z,6.90
2023-10-16T07:38:40.959Z,6.80
2023-10-16T07:41:20.379Z,6.50
2023-10-16T07:43:49.874Z,6.90
2023-10-16T07:46:16.882Z,5.70
2023-10-16T07:48:46.883Z,6.70
2023-10-16T07:51:18.320Z,7.10
2023-10-16T07:53:45.720Z,7.40
2023-10-16T07:56:20.815Z,10.10
2023-10-16T07:58:52.890Z,9.00
2023-10-16T08:01:39.873Z,10.40
2023-10-16T08:04:08.338Z,11.30
2023-10-16T08:06:40.598Z,9.30
2023-10-16T08:09:23.241Z,11.10
2023-10-16T08:11:58.489Z,8.00
2023-10-16T08:14:29.847Z,8.10
2023-10-16T08:17:05.929Z,10.10
2023-10-16T08:19:35.897Z,8.10
2023-10-16T08:22:09.087Z,8.70
2023-10-16T08:24:45.196Z,11.70
2023-10-16T08:27:24.751Z,9.80
2023-10-16T08:30:00.707Z,9.30
2023-10-16T08:32:46.697Z,11.50
2023-10-16T08:35:19.023Z,8.80
2023-10-16T08:37:58.396Z,6.30
2023-10-16T08:40:36.301Z,9.10
2023-10-16T08:43:11.120Z,8.80
2023-10-16T08:45:50.954Z,7.80
2023-10-16T08:48:19.388Z,8.90
2023-10-16T08:50:58.968Z,9.60
2023-10-16T08:53:33.131Z,8.10
2023-10-16T08:56:10.292Z,6.40
2023-10-16T08:58:41.692Z,7.10
2023-10-16T09:01:10.529Z,9.80
2023-10-16T09:04:01.411Z,10.10
2023-10-16T09:06:31.298Z,7.40
2023-10-16T09:08:59.655Z,8.10
2023-10-16T09:11:28.278Z,6.80
2023-10-16T09:13:55.672Z,7.20
2023-10-16T09:16:27.811Z,8.60
2023-10-16T09:18:55.748Z,7.50
2023-10-16T09:21:26.064Z,7.70
2023-10-16T09:23:59.989Z,6.70
2023-10-16T09:26:34.075Z,7.90
2023-10-16T09:29:15.992Z,6.40
2023-10-16T09:31:46.338Z,7.50
2023-10-16T09:34:27.571Z,7.40
2023-10-16T09:37:14.562Z,7.50
2023-10-16T09:39:42.464Z,8.90
2023-10-16T09:42:16.036Z,7.10
2023-10-16T09:44:57.868Z,7.20
2023-10-16T09:47:29.745Z,6.70
2023-10-16T09:50:01.925Z,9.50
2023-10-16T09:52:33.938Z,9.60
2023-10-16T09:55:01.461Z,7.00
2023-10-16T09:57:33.433Z,6.60
2023-10-16T10:00:19.991Z,8.20
2023-10-16T10:02:47.555Z,5.50
2023-10-16T10:05:16.349Z,7.80
2023-10-16T10:07:50.821Z,9.40
2023-10-16T10:10:33.219Z,10.00
2023-10-16T10:13:12.193Z,7.20
2023-10-16T10:15:48.899Z,9.10
2023-10-16T10:18:44.296Z,9.30
2023-10-16T10:21:29.390Z,6.90
2023-10-16T10:24:04.624Z,7.30
2023-10-16T10:26:34.362Z,7.10
2023-10-16T10:29:13.272Z,8.70
2023-10-16T10:31:46.199Z,10.80
2023-10-16T10:34:24.876Z,8.30
2023-10-16T10:36:52.656Z,9.90
2023-10-16T10:39:45.493Z,8.50
2023-10-16T10:42:25.437Z,8.70
2023-10-16T10:45:22.324Z,8.80
2023-10-16T10:47:53.089Z,7.20
2023-10-16T10:50:22.671Z,8.10
2023-10-16T10:52:49.794Z,7.90
2023-10-16T10:55:23.165Z,8.00
2023-10-16T10:58:00.077Z,13.30
2023-10-16T11:00:28.223Z,8.10
2023-10-16T11:03:01.918Z,9.10
2023-10-16T11:05:32.744Z,7.80
2023-10-16T11:08:13.312Z,7.50
2023-10-16T11:10:49.108Z,9.70
2023-10-16T11:13:19.325Z,6.70
2023-10-16T11:16:01.324Z,8.00
2023-10-16T11:19:00.327Z,9.30
2023-10-16T11:21:30.557Z,9.90
2023-10-16T11:24:01.820Z,6.40
2023-10-16T11:26:29.353Z,6.90
2023-10-16T11:29:01.674Z,7.60
2023-10-16T11:31:28.863Z,6.50
2023-10-16T11:34:08.083Z,7.30
2023-10-16T11:36:43.519Z,7.80
2023-10-16T11:39:21.872Z,7.30
2023-10-16T11:41:50.749Z,8.10
2023-10-16T11:44:18.788Z,9.40
2023-10-16T11:46:57.197Z,8.20
2023-10-16T11:49:24.922Z,7.10
2023-10-16T11:52:10.148Z,8.70
2023-10-16T11:54:41.933Z,6.10
2023-10-16T11:57:14.765Z,8.50
2023-10-16T11:59:42.638Z,6.70
2023-10-16T12:02:15.320Z,8.40
2023-10-16T12:04:42.971Z,8.10
2023-10-16T12:07:16.088Z,5.20
2023-10-16T12:09:49.594Z,7.50
2023-10-16T12:12:28.052Z,8.70
2023-10-16T12:14:55.171Z,8.00
2023-10-16T12:17:23.019Z,6.80
2023-10-16T12:19:54.508Z,8.50
2023-10-16T12:22:24.865Z,6.90
2023-10-16T12:24:52.068Z,6.60
2023-10-16T12:27:19.403Z,13.80
2023-10-16T12:29:46.450Z,24.40
2023-10-16T12:32:14.755Z,40.90
2023-10-16T12:34:43.294Z,37.60
2023-10-16T12:37:11.341Z,38.40
2023-10-16T12:39:46.880Z,38.50
2023-10-16T12:42:15.034Z,39.80
2023-10-16T12:44:43.116Z,37.60
2023-10-16T12:47:24.216Z,34.20
2023-10-16T12:49:59.614Z,34.40
2023-10-16T12:52:31.360Z,34.90
2023-10-16T12:54:58.775Z,30.30
2023-10-16T12:57:26.155Z,32.80
2023-10-16T12:59:57.652Z,28.80
2023-10-16T13:02:28.017Z,30.20
2023-10-16T13:04:57.455Z,31.20
2023-10-16T13:07:39.885Z,33.30
2023-10-16T13:10:32.260Z,31.60
2023-10-16T13:13:04.723Z,32.60
2023-10-16T13:15:32.925Z,29.40
2023-10-16T13:18:03.052Z,26.00
2023-10-16T13:20:30.957Z,28.10
2023-10-16T13:23:00.213Z,27.60
2023-10-16T13:25:36.349Z,26.20
2023-10-16T13:28:05.432Z,29.90
2023-10-16T13:30:33.205Z,24.20
2023-10-16T13:33:08.442Z,24.70
2023-10-16T13:35:41.242Z,25.30
2023-10-16T13:38:09.283Z,22.20
2023-10-16T13:40:37.501Z,22.10
2023-10-16T13:43:12.179Z,22.40
2023-10-16T13:45:40.930Z,25.90
2023-10-16T13:48:11.293Z,19.90
2023-10-16T13:50:42.249Z,20.60
2023-10-16T13:53:20.702Z,23.50
2023-10-16T13:55:54.247Z,22.20
2023-10-16T13:58:22.487Z,22.30
2023-10-16T14:00:49.862Z,21.80
2023-10-16T14:03:17.836Z,20.80
2023-10-16T14:05:57.045Z,19.40
2023-10-16T14:08:38.116Z,22.60
2023-10-16T14:11:05.725Z,21.40
2023-10-16T14:13:52.651Z,19.10
2023-10-16T14:16:20.035Z,20.30
2023-10-16T14:18:48.563Z,20.10
2023-10-16T14:21:18.192Z,18.60
2023-10-16T14:23:46.044Z,18.30
2023-10-16T14:26:22.446Z,23.30
2023-10-16T14:28:56.116Z,19.50
2023-10-16T14:31:26.829Z,18.60
2023-10-16T14:33:57.166Z,18.70
2023-10-16T14:36:31.299Z,19.50
2023-10-16T14:39:01.064Z,17.10
2023-10-16T14:41:28.455Z,18.80
2023-10-16T14:46:44.789Z,18.80
2023-10-16T14:49:12.997Z,17.40
2023-10-16T14:51:41.231Z,14.20
2023-10-16T14:54:14.166Z,19.60
2023-10-16T14:56:44.492Z,17.00
2023-10-16T14:59:16.969Z,16.50
2023-10-16T15:01:47.647Z,16.00
2023-10-16T15:04:15.834Z,16.70
2023-10-16T15:06:43.142Z,18.40
2023-10-16T15:09:17.694Z,15.60
2023-10-16T15:11:47.546Z,17.90
2023-10-16T15:14:14.755Z,17.60
2023-10-16T15:16:42.410Z,18.70
2023-10-16T15:19:09.703Z,15.70
2023-10-16T15:21:37.641Z,17.60
2023-10-16T15:24:06.170Z,14.10
2023-10-16T15:26:35.542Z,16.00
2023-10-16T15:29:06.952Z,17.90
2023-10-16T15:31:37.183Z,15.20
2023-10-16T15:34:10.859Z,15.90
2023-10-16T15:36:38.763Z,16.30
2023-10-16T15:39:06.936Z,16.10
2023-10-16T15:41:34.079Z,18.10
2023-10-16T15:44:04.695Z,14.80
2023-10-16T15:46:33.160Z,17.90
2023-10-16T15:49:01.012Z,15.90
2023-10-16T15:51:32.172Z,16.10
2023-10-16T15:54:00.259Z,15.00
2023-10-16T15:56:28.316Z,14.90
2023-10-16T15:58:57.340Z,18.00
2023-10-16T16:01:27.164Z,16.80
2023-10-16T16:04:03.813Z,17.80
2023-10-16T16:09:22.026Z,18.20
2023-10-16T16:11:50.340Z,18.90
2023-10-16T16:14:21.536Z,21.50
2023-10-16T16:16:53.180Z,18.20
2023-10-16T16:19:24.561Z,17.50
2023-10-16T16:21:53.190Z,20.60
2023-10-16T16:24:21.166Z,20.40
2023-10-16T16:26:48.322Z,21.30
2023-10-16T16:29:19.322Z,16.30
2023-10-16T16:31:46.880Z,17.30
2023-10-16T16:34:14.174Z,21.70
2023-10-16T16:36:42.059Z,15.50
2023-10-16T16:39:14.208Z,17.50
2023-10-16T16:41:42.513Z,12.90
2023-10-16T16:44:09.790Z,15.30
2023-10-16T16:46:36.830Z,15.10
2023-10-16T16:49:04.382Z,16.80
2023-10-16T16:51:31.464Z,14.10
2023-10-16T16:53:59.565Z,18.40
2023-10-16T16:56:26.672Z,12.70
2023-10-16T16:58:55.662Z,16.60
2023-10-16T17:01:23.010Z,18.30
2023-10-16T17:03:51.207Z,12.10
2023-10-16T17:06:18.460Z,15.00
2023-10-16T17:08:46.035Z,13.80
2023-10-16T17:11:15.113Z,15.30
2023-10-16T17:13:44.413Z,15.90
2023-10-16T17:16:11.593Z,16.00
2023-10-16T17:18:41.274Z,14.30
2023-10-16T17:21:10.252Z,14.90
2023-10-16T17:23:39.104Z,11.80
2023-10-16T17:26:06.307Z,17.30
2023-10-16T17:28:33.598Z,14.20
2023-10-16T17:31:00.649Z,12.50
2023-10-16T17:33:28.004Z,17.10
2023-10-16T17:36:05.936Z,13.10
2023-10-16T17:38:33.985Z,12.20
2023-10-16T17:41:03.316Z,14.50
2023-10-16T17:43:31.128Z,17.00
2023-10-16T17:45:59.847Z,15.50
2023-10-16T17:48:27.034Z,16.20
2023-10-16T17:50:56.363Z,14.20
2023-10-16T17:53:26.438Z,16.60
2023-10-16T17:55:53.892Z,18.00
2023-10-16T17:58:23.361Z,15.40
2023-10-16T18:00:54.349Z,12.70
2023-10-16T18:03:22.742Z,15.50
2023-10-16T18:05:50.395Z,14.60
2023-10-16T18:08:18.610Z,14.60
2023-10-16T18:10:49.639Z,14.50
2023-10-16T18:13:17.113Z,11.80
2023-10-16T18:15:54.874Z,13.40
2023-10-16T18:18:24.899Z,14.10
2023-10-16T18:20:52.474Z,12.40
2023-10-16T18:23:20.776Z,15.90
2023-10-16T18:25:48.078Z,11.70
2023-10-16T18:28:16.576Z,15.00
2023-10-16T18:30:44.436Z,10.70
2023-10-16T18:33:13.108Z,17.80
2023-10-16T18:35:40.262Z,13.40
2023-10-16T18:38:11.563Z,15.50
2023-10-16T18:40:39.900Z,12.50
2023-10-16T18:43:09.203Z,17.30
2023-10-16T18:45:38.320Z,16.90
2023-10-16T18:48:07.352Z,11.60
2023-10-16T18:50:34.872Z,14.90
2023-10-16T18:53:02.903Z,12.90
2023-10-16T18:55:31.133Z,14.60
2023-10-16T18:57:59.262Z,14.00
2023-10-16T19:00:27.390Z,13.40
2023-10-16T19:02:59.230Z,11.90
2023-10-16T19:05:26.916Z,14.40
2023-10-16T19:07:54.085Z,12.80
2023-10-16T19:10:25.849Z,12.40
2023-10-16T19:12:54.588Z,15.20
2023-10-16T19:15:23.254Z,13.10
2023-10-16T19:17:53.976Z,13.20
2023-10-16T19:20:21.569Z,10.50
2023-10-16T19:22:48.827Z,10.80
2023-10-16T19:25:16.679Z,13.60
2023-10-16T19:27:43.790Z,15.10
2023-10-16T19:30:15.157Z,11.50
2023-10-16T19:32:45.248Z,12.20
2023-10-16T19:35:19.589Z,13.60
2023-10-16T19:37:48.813Z,10.40
2023-10-16T19:40:16.541Z,9.40
2023-10-16T19:42:48.823Z,10.80
2023-10-16T19:45:19.010Z,9.90
2023-10-16T19:47:50.360Z,8.80
2023-10-16T19:50:20.345Z,11.60
2023-10-16T19:52:48.711Z,10.30
2023-10-16T19:55:24.094Z,9.70
2023-10-16T19:57:53.124Z,12.40
2023-10-16T20:00:26.304Z,12.90
2023-10-16T20:02:56.981Z,10.50
2023-10-16T20:05:27.079Z,10.90
2023-10-16T20:07:59.906Z,9.80
2023-10-16T20:10:39.990Z,10.70
2023-10-16T20:13:12.872Z,8.60
2023-10-16T20:15:40.565Z,10.60
2023-10-16T20:18:14.239Z,9.00
2023-10-16T20:20:43.785Z,9.10
2023-10-16T20:23:11.437Z,9.30
2023-10-16T20:25:41.489Z,10.90
2023-10-16T20:28:10.257Z,9.20
2023-10-16T20:30:38.533Z,8.60
2023-10-16T20:33:06.788Z,9.70
2023-10-16T20:35:35.237Z,11.90
2023-10-16T20:38:03.704Z,8.50
2023-10-16T20:40:35.608Z,7.80
2023-10-16T20:43:08.497Z,8.70
2023-10-16T20:45:36.043Z,9.70
2023-10-16T20:48:07.942Z,10.30
2023-10-16T20:50:36.748Z,11.10
2023-10-16T20:53:10.955Z,12.50
2023-10-16T20:55:43.006Z,13.80
2023-10-16T20:58:10.787Z,9.90
2023-10-16T21:00:41.404Z,10.50
2023-10-16T21:03:09.743Z,9.60
2023-10-16T21:05:39.315Z,10.70
2023-10-16T21:08:06.942Z,14.10
2023-10-16T21:10:34.375Z,9.90
2023-10-16T21:13:04.468Z,14.30
2023-10-16T21:15:32.094Z,10.20
2023-10-16T21:18:01.567Z,12.20
2023-10-16T21:20:31.554Z,10.60
2023-10-16T21:22:59.131Z,13.70
2023-10-16T21:25:27.198Z,11.20
2023-10-16T21:27:55.482Z,9.90
2023-10-16T21:30:23.606Z,14.60
2023-10-16T21:32:55.000Z,11.50
2023-10-16T21:35:26.361Z,9.30
2023-10-16T21:37:54.510Z,10.20
2023-10-16T21:40:24.686Z,11.90
2023-10-16T21:42:53.256Z,9.90
2023-10-16T21:45:23.735Z,10.10
2023-10-16T21:47:52.720Z,11.10
2023-10-16T21:50:21.259Z,8.50
2023-10-16T21:52:49.018Z,9.20
2023-10-16T21:55:16.215Z,9.40
2023-10-16T21:57:44.385Z,11.30
2023-10-16T22:00:33.223Z,8.90
2023-10-16T22:03:01.495Z,9.00
2023-10-16T22:05:29.797Z,9.40
2023-10-16T22:07:59.765Z,8.90
2023-10-16T22:10:26.858Z,9.80
2023-10-16T22:12:56.767Z,8.80
2023-10-16T22:15:24.370Z,8.80
2023-10-16T22:17:54.277Z,8.60
2023-10-16T22:20:24.855Z,9.10
2023-10-16T22:22:52.598Z,11.10
2023-10-16T22:25:21.192Z,9.30
2023-10-16T22:27:51.674Z,9.30
2023-10-16T22:30:21.993Z,8.10
2023-10-16T22:32:49.413Z,10.40
2023-10-16T22:35:18.456Z,9.30
2023-10-16T22:37:45.560Z,9.60
2023-10-16T22:40:16.190Z,7.90
2023-10-16T22:42:47.036Z,10.30
2023-10-16T22:45:17.353Z,7.80
2023-10-16T22:47:47.379Z,10.10
2023-10-16T22:50:14.504Z,10.00
2023-10-16T22:52:41.681Z,9.20
2023-10-16T22:55:09.800Z,9.10
2023-10-16T22:57:37.549Z,8.30
2023-10-16T23:00:06.885Z,9.80
2023-10-16T23:02:34.256Z,9.00
2023-10-16T23:05:01.552Z,10.70
2023-10-16T23:07:28.818Z,9.20
2023-10-16T23:09:57.277Z,10.10
2023-10-16T23:12:36.738Z,7.30
2023-10-16T23:15:10.461Z,10.10
2023-10-16T23:17:40.895Z,9.30
2023-10-16T23:20:18.129Z,7.20
2023-10-16T23:22:50.399Z,7.80
2023-10-16T23:25:21.899Z,8.10
2023-10-16T23:27:49.785Z,9.40
2023-10-16T23:30:17.021Z,7.90
2023-10-16T23:32:53.606Z,8.30
2023-10-16T23:35:25.112Z,7.90
2023-10-16T23:37:55.460Z,9.90
2023-10-16T23:40:34.759Z,9.60
2023-10-16T23:43:27.352Z,8.00
2023-10-16T23:46:01.190Z,8.70
2023-10-16T23:48:38.447Z,10.80
2023-10-16T23:51:11.585Z,9.40
2023-10-16T23:53:52.305Z,9.50
2023-10-16T23:56:22.459Z,10.10
2023-10-16T23:59:17.175Z,8.60
